Old Fields, West Virginia
Current Conditions -  °F | °C
As of 5:30 PM on Friday 24 Oct 2014 (Local Time) from KW99 Reporting Station
Clear Clear  
Wind Chill: 64°   Ceiling: Unl
Heat Index: 64°   Visibility: 10mi
Dew Point: 28°   Wind: 7mph
Humidity: 25%   Direction: 300°WNW
Pressure: 29.98"   Gusts: NA
Location:  39.14°N, 78.95°W
Report Text: KW99 242130Z AUTO 30006KT 10SM CLR 18/M02 A2998 RMK AO2 T01801022
Loading
Personal Weather Stations






























Interactive Weather Map New forecast layout! Learn more

10-Day Weather Forecast

Advertisements
Track Severe Weather on mobile